createdAt,value
2018-06-25T00:00:49.433Z,40.37
2018-06-25T00:03:19.024Z,40.38
2018-06-25T00:05:48.442Z,40.74
2018-06-25T00:08:18.194Z,40.59
2018-06-25T00:10:47.734Z,40.65
2018-06-25T00:13:17.268Z,40.24
2018-06-25T00:15:46.863Z,41.14
2018-06-25T00:18:16.617Z,41.09
2018-06-25T00:20:46.158Z,40.99
2018-06-25T00:23:15.701Z,40.82
2018-06-25T00:25:45.137Z,40.75
2018-06-25T00:28:14.848Z,41.33
2018-06-25T00:30:44.375Z,40.54
2018-06-25T00:33:13.920Z,40.90
2018-06-25T00:35:43.421Z,40.45
2018-06-25T00:38:12.864Z,40.29
2018-06-25T00:40:42.538Z,40.50
2018-06-25T00:43:11.982Z,40.79
2018-06-25T00:45:41.451Z,40.99
2018-06-25T00:48:10.930Z,40.74
2018-06-25T00:50:40.378Z,41.46
2018-06-25T00:53:10.538Z,41.68
2018-06-25T00:55:40.187Z,41.55
2018-06-25T00:58:09.676Z,40.93
2018-06-25T01:00:39.203Z,41.19
2018-06-25T01:03:08.900Z,41.63
2018-06-25T01:05:38.457Z,41.50
2018-06-25T01:08:08.107Z,41.21
2018-06-25T01:10:37.643Z,41.75
2018-06-25T01:13:07.223Z,41.76
2018-06-25T01:15:37.232Z,41.79
2018-06-25T01:18:06.502Z,41.81
2018-06-25T01:20:36.262Z,42.02
2018-06-25T01:23:06.271Z,42.41
2018-06-25T01:25:35.743Z,42.78
2018-06-25T01:28:05.314Z,42.68
2018-06-25T01:30:34.769Z,43.08
2018-06-25T01:33:04.236Z,42.99
2018-06-25T01:35:34.064Z,43.25
2018-06-25T01:38:03.566Z,43.25
2018-06-25T01:40:33.084Z,43.50
2018-06-25T01:43:02.611Z,43.04
2018-06-25T01:45:32.438Z,43.58
2018-06-25T01:48:02.175Z,42.86
2018-06-25T01:50:31.661Z,43.24
2018-06-25T01:53:01.141Z,43.46
2018-06-25T01:55:30.622Z,43.33
2018-06-25T01:58:00.123Z,44.17
2018-06-25T02:00:29.877Z,43.20
2018-06-25T02:02:59.438Z,43.49
2018-06-25T02:05:29.080Z,43.66
2018-06-25T02:07:58.555Z,43.46
2018-06-25T02:10:28.112Z,43.42
2018-06-25T02:12:57.613Z,44.28
2018-06-25T02:15:27.199Z,43.72
2018-06-25T02:17:56.691Z,44.52
2018-06-25T02:20:26.303Z,44.63
2018-06-25T02:22:55.756Z,44.30
2018-06-25T02:25:25.358Z,44.75
2018-06-25T02:27:54.922Z,44.53
2018-06-25T02:30:24.474Z,44.23
2018-06-25T02:32:53.966Z,44.42
2018-06-25T02:35:23.426Z,44.91
2018-06-25T02:37:52.874Z,45.29
2018-06-25T02:40:22.482Z,44.99
2018-06-25T02:42:52.155Z,44.67
2018-06-25T02:45:21.853Z,44.83
2018-06-25T02:47:51.483Z,45.86
2018-06-25T02:50:21.058Z,45.77
2018-06-25T02:52:50.693Z,45.65
2018-06-25T02:55:20.200Z,45.65
2018-06-25T02:57:49.814Z,46.02
2018-06-25T03:00:19.528Z,45.79
2018-06-25T03:02:49.163Z,45.65
2018-06-25T03:05:18.717Z,45.83
2018-06-25T03:07:48.190Z,45.50
2018-06-25T03:10:17.738Z,46.00
2018-06-25T03:12:47.333Z,46.11
2018-06-25T03:15:16.834Z,46.50
2018-06-25T03:17:46.433Z,45.77
2018-06-25T03:20:15.968Z,46.20
2018-06-25T03:22:45.545Z,46.76
2018-06-25T03:25:15.035Z,46.63
2018-06-25T03:27:44.565Z,46.32
2018-06-25T03:30:14.118Z,47.64
2018-06-25T03:32:43.794Z,47.38
2018-06-25T03:35:13.381Z,47.35
2018-06-25T03:37:43.012Z,47.72
2018-06-25T03:40:12.846Z,46.92
2018-06-25T03:42:42.419Z,48.00
2018-06-25T03:45:11.927Z,47.61
2018-06-25T03:47:41.478Z,48.02
2018-06-25T03:50:11.037Z,47.68
2018-06-25T03:52:40.534Z,48.23
2018-06-25T03:55:10.177Z,47.54
2018-06-25T03:57:39.641Z,48.17
2018-06-25T04:00:09.146Z,48.64
2018-06-25T04:02:38.647Z,48.67
2018-06-25T04:05:08.165Z,49.18
2018-06-25T04:07:37.882Z,49.17
2018-06-25T04:10:07.465Z,49.29
2018-06-25T04:12:37.073Z,49.05
2018-06-25T04:15:07.136Z,48.62
2018-06-25T04:17:36.714Z,47.98
2018-06-25T04:20:06.229Z,47.41
2018-06-25T04:22:35.713Z,47.60
2018-06-25T04:25:05.350Z,47.89
2018-06-25T04:27:34.893Z,48.20
2018-06-25T04:30:04.439Z,49.10
2018-06-25T04:32:34.021Z,48.57
2018-06-25T04:35:03.677Z,48.41
2018-06-25T04:37:33.212Z,48.25
2018-06-25T04:40:02.785Z,47.85
2018-06-25T04:42:32.260Z,48.49
2018-06-25T04:45:01.785Z,48.32
2018-06-25T04:47:31.256Z,47.51
2018-06-25T04:50:00.793Z,47.43
2018-06-25T04:52:30.306Z,47.99
2018-06-25T04:54:59.843Z,49.62
2018-06-25T04:57:29.348Z,49.29
2018-06-25T04:59:58.926Z,49.46
2018-06-25T05:02:28.549Z,48.64
2018-06-25T05:04:58.108Z,48.12
2018-06-25T05:07:27.900Z,48.10
2018-06-25T05:09:57.490Z,47.94
2018-06-25T05:12:27.266Z,48.17
2018-06-25T05:14:56.758Z,47.52
2018-06-25T05:17:26.377Z,47.72
2018-06-25T05:19:55.972Z,47.17
2018-06-25T05:22:25.533Z,47.46
2018-06-25T05:24:55.459Z,47.50
2018-06-25T05:27:24.999Z,47.03
2018-06-25T05:29:54.704Z,47.16
2018-06-25T05:32:24.563Z,47.05
2018-06-25T05:34:54.227Z,46.81
2018-06-25T05:37:23.846Z,47.10
2018-06-25T05:39:53.439Z,46.52
2018-06-25T05:42:23.894Z,46.49
2018-06-25T05:44:53.983Z,46.31
2018-06-25T05:47:23.484Z,47.03
2018-06-25T05:49:53.152Z,46.66
2018-06-25T05:52:22.795Z,46.67
2018-06-25T05:54:52.436Z,46.26
2018-06-25T05:57:22.118Z,46.80
2018-06-25T05:59:51.594Z,46.18
2018-06-25T06:02:21.117Z,46.74
2018-06-25T06:04:50.664Z,46.47
2018-06-25T06:07:20.334Z,46.78
2018-06-25T06:09:49.828Z,46.92
2018-06-25T06:12:19.349Z,47.47
2018-06-25T06:14:48.862Z,46.82
2018-06-25T06:17:18.328Z,47.47
2018-06-25T06:19:47.922Z,46.95
2018-06-25T06:22:17.664Z,47.08
2018-06-25T06:24:47.158Z,47.03
2018-06-25T06:27:17.087Z,47.18
2018-06-25T06:29:46.772Z,46.72
2018-06-25T06:32:17.067Z,47.03
2018-06-25T06:34:46.934Z,46.87
2018-06-25T06:37:16.432Z,46.56
2018-06-25T06:39:45.997Z,46.05
2018-06-25T06:42:15.555Z,45.77
2018-06-25T06:44:45.155Z,46.04
2018-06-25T06:47:14.745Z,45.76
2018-06-25T06:49:44.267Z,45.78
2018-06-25T06:52:13.741Z,45.93
2018-06-25T06:54:43.384Z,46.02
2018-06-25T06:57:12.926Z,46.07
2018-06-25T06:59:43.043Z,46.08
2018-06-25T07:02:12.502Z,46.26
2018-06-25T07:04:42.295Z,45.78
2018-06-25T07:07:12.091Z,45.30
2018-06-25T07:09:41.652Z,45.50
2018-06-25T07:12:11.244Z,44.13
2018-06-25T07:14:40.744Z,44.62
2018-06-25T07:17:10.374Z,44.19
2018-06-25T07:19:40.241Z,44.07
2018-06-25T07:22:09.883Z,43.40
2018-06-25T07:24:39.534Z,43.08
2018-06-25T07:27:09.125Z,43.32
2018-06-25T07:29:38.829Z,42.64
2018-06-25T07:32:08.418Z,42.50
2018-06-25T07:34:37.898Z,42.57
2018-06-25T07:37:07.443Z,42.25
2018-06-25T07:39:37.457Z,41.93
2018-06-25T07:42:07.286Z,42.14
2018-06-25T07:44:36.978Z,42.00
2018-06-25T07:47:06.677Z,42.20
2018-06-25T07:49:36.186Z,41.12
2018-06-25T07:52:05.760Z,42.04
2018-06-25T07:54:35.606Z,41.84
2018-06-25T07:57:05.475Z,41.17
2018-06-25T07:59:35.034Z,41.03
2018-06-25T08:02:04.521Z,40.79
2018-06-25T08:04:34.243Z,40.71
2018-06-25T08:07:03.925Z,41.30
2018-06-25T08:09:33.562Z,41.20
2018-06-25T08:12:03.159Z,40.51
2018-06-25T08:14:32.953Z,40.14
2018-06-25T08:17:02.574Z,40.08
2018-06-25T08:19:32.165Z,40.81
2018-06-25T08:22:01.647Z,40.96
2018-06-25T08:24:31.418Z,40.08
2018-06-25T08:27:01.037Z,40.09
2018-06-25T08:29:30.646Z,39.17
2018-06-25T08:32:00.591Z,38.69
2018-06-25T08:34:30.542Z,38.40
2018-06-25T08:37:00.210Z,38.35
2018-06-25T08:39:30.357Z,38.14
2018-06-25T08:42:00.153Z,37.79
2018-06-25T08:44:29.688Z,37.64
2018-06-25T08:46:59.286Z,37.13
2018-06-25T08:49:28.728Z,36.57
2018-06-25T08:51:58.407Z,35.84
2018-06-25T08:54:28.017Z,34.51
2018-06-25T08:56:57.854Z,34.12
2018-06-25T08:59:28.018Z,33.27
2018-06-25T09:01:57.742Z,32.60
2018-06-25T09:04:27.594Z,31.62
2018-06-25T09:06:57.270Z,30.25
2018-06-25T09:09:26.805Z,28.50
2018-06-25T09:11:56.375Z,27.44
2018-06-25T09:14:26.030Z,26.18
2018-06-25T09:16:55.511Z,25.44
2018-06-25T09:19:25.199Z,24.86
2018-06-25T09:21:54.820Z,24.67
2018-06-25T09:24:24.526Z,24.71
2018-06-25T09:26:53.973Z,24.62
2018-06-25T09:29:23.494Z,25.13
2018-06-25T09:31:53.509Z,24.54
2018-06-25T09:34:28.299Z,25.54
2018-06-25T09:36:57.919Z,25.47
2018-06-25T09:39:27.550Z,26.20
2018-06-25T09:41:57.130Z,26.51
2018-06-25T09:44:26.667Z,28.60
2018-06-25T09:46:56.207Z,28.13
2018-06-25T09:49:26.075Z,29.28
2018-06-25T09:51:55.637Z,29.84
2018-06-25T09:54:25.442Z,29.64
2018-06-25T09:56:54.962Z,29.04
2018-06-25T09:59:24.423Z,28.34
2018-06-25T10:01:53.920Z,27.54
2018-06-25T10:04:23.570Z,25.87
2018-06-25T10:06:53.052Z,26.30
2018-06-25T10:09:22.576Z,26.28
2018-06-25T10:11:52.067Z,25.25
2018-06-25T10:14:21.873Z,24.70
2018-06-25T10:16:51.574Z,25.46
2018-06-25T10:19:21.133Z,27.37
2018-06-25T10:21:50.871Z,27.58
2018-06-25T10:24:20.427Z,27.48
2018-06-25T10:26:49.969Z,27.34
2018-06-25T10:29:19.662Z,28.00
2018-06-25T10:31:49.297Z,27.89
2018-06-25T10:34:19.213Z,28.35
2018-06-25T10:36:48.865Z,27.55
2018-06-25T10:39:18.551Z,28.75
2018-06-25T10:41:48.187Z,28.96
2018-06-25T10:44:17.969Z,28.87
2018-06-25T10:46:47.485Z,27.90
2018-06-25T10:49:17.097Z,27.33
2018-06-25T10:51:46.795Z,27.36
2018-06-25T10:54:17.190Z,27.44
2018-06-25T10:56:46.802Z,27.13
2018-06-25T10:59:16.552Z,28.46
2018-06-25T11:01:46.233Z,28.47
2018-06-25T11:04:15.697Z,28.76
2018-06-25T11:06:45.781Z,28.89
2018-06-25T11:09:15.279Z,29.88
2018-06-25T11:11:44.876Z,29.63
2018-06-25T11:14:14.545Z,29.02
2018-06-25T11:16:44.022Z,29.13
2018-06-25T11:19:13.611Z,30.29
2018-06-25T11:21:43.381Z,29.52
2018-06-25T11:24:13.043Z,28.71
2018-06-25T11:26:42.721Z,28.96
2018-06-25T11:29:12.205Z,28.07
2018-06-25T11:31:41.699Z,27.81
2018-06-25T11:34:11.152Z,27.37
2018-06-25T11:36:40.740Z,26.63
2018-06-25T11:39:11.902Z,27.98
2018-06-25T11:41:41.591Z,27.12
2018-06-25T11:44:11.103Z,26.81
2018-06-25T11:46:40.618Z,25.85
2018-06-25T11:49:10.147Z,25.87
2018-06-25T11:51:39.780Z,25.12
2018-06-25T11:54:09.450Z,26.22
2018-06-25T11:56:39.450Z,24.85
2018-06-25T11:59:09.031Z,25.45
2018-06-25T12:01:38.633Z,25.98
2018-06-25T12:04:08.303Z,26.13
2018-06-25T12:06:38.622Z,26.53
2018-06-25T12:09:10.523Z,27.06
2018-06-25T12:11:40.214Z,25.88
2018-06-25T12:14:09.805Z,25.69
2018-06-25T12:16:39.671Z,25.41
2018-06-25T12:19:09.449Z,25.50
2018-06-25T12:21:38.807Z,25.78
2018-06-25T12:24:08.479Z,26.70
2018-06-25T12:26:37.968Z,25.13
2018-06-25T12:29:07.525Z,25.38
2018-06-25T12:31:37.206Z,24.98
2018-06-25T12:34:07.252Z,25.23
2018-06-25T12:36:36.834Z,25.79
2018-06-25T12:39:10.065Z,26.54
2018-06-25T12:41:40.101Z,26.21
2018-06-25T12:44:09.839Z,25.32
2018-06-25T12:46:39.771Z,26.43
2018-06-25T12:49:09.280Z,26.15
2018-06-25T12:51:38.762Z,24.98
2018-06-25T12:54:08.280Z,25.09
2018-06-25T12:56:37.961Z,25.06
2018-06-25T12:59:07.900Z,26.03
2018-06-25T13:01:37.545Z,25.63
2018-06-25T13:04:07.061Z,26.46
2018-06-25T13:06:36.663Z,26.42
2018-06-25T13:09:10.979Z,26.56
2018-06-25T13:11:40.667Z,26.91
2018-06-25T13:14:10.309Z,26.83
2018-06-25T13:16:39.865Z,26.07
2018-06-25T13:19:09.675Z,27.02
2018-06-25T13:21:39.237Z,26.55
2018-06-25T13:24:08.772Z,26.41
2018-06-25T13:26:38.309Z,25.31
2018-06-25T13:29:08.071Z,25.15
2018-06-25T13:31:37.631Z,25.38
2018-06-25T13:34:07.474Z,24.73
2018-06-25T13:36:36.989Z,25.06
2018-06-25T13:39:09.344Z,26.06
2018-06-25T13:41:38.986Z,26.19
2018-06-25T13:44:08.604Z,25.28
2018-06-25T13:46:38.183Z,25.25
2018-06-25T13:49:07.865Z,25.72
2018-06-25T13:51:37.469Z,25.19
2018-06-25T13:54:07.401Z,26.42
2018-06-25T13:56:37.179Z,26.25
2018-06-25T13:59:06.894Z,25.76
2018-06-25T14:01:36.574Z,25.57
2018-06-25T14:04:06.449Z,26.28
2018-06-25T14:06:36.010Z,25.61
2018-06-25T14:09:08.378Z,25.24
2018-06-25T14:11:39.338Z,25.82
2018-06-25T14:14:09.668Z,24.36
2018-06-25T14:16:39.876Z,24.24
2018-06-25T14:19:11.501Z,25.09
2018-06-25T14:21:43.541Z,23.70
2018-06-25T14:24:19.558Z,24.22
2018-06-25T14:26:49.245Z,23.85
2018-06-25T14:29:24.590Z,25.11
2018-06-25T14:31:59.745Z,25.14
2018-06-25T14:34:29.340Z,25.33
2018-06-25T14:36:59.082Z,25.12
2018-06-25T14:39:28.627Z,25.99
2018-06-25T14:41:58.310Z,26.43
2018-06-25T14:44:28.078Z,25.35
2018-06-25T14:46:57.614Z,25.21
2018-06-25T14:49:27.277Z,25.68
2018-06-25T14:51:57.570Z,25.78
2018-06-25T14:54:27.591Z,24.95
2018-06-25T14:56:56.828Z,25.13
2018-06-25T14:59:26.356Z,25.06
2018-06-25T15:01:56.216Z,24.12
2018-06-25T15:04:25.678Z,24.53
2018-06-25T15:06:55.353Z,24.63
2018-06-25T15:09:24.995Z,25.31
2018-06-25T15:11:54.683Z,26.15
2018-06-25T15:14:26.148Z,25.78
2018-06-25T15:16:55.828Z,26.53
2018-06-25T15:19:25.448Z,25.99
2018-06-25T15:21:55.026Z,26.73
2018-06-25T15:24:24.869Z,26.87
2018-06-25T15:26:55.114Z,27.17
2018-06-25T15:29:24.903Z,25.77
2018-06-25T15:31:54.637Z,26.30
2018-06-25T15:34:24.286Z,26.42
2018-06-25T15:36:54.180Z,25.44
2018-06-25T15:39:23.961Z,25.53
2018-06-25T15:41:53.729Z,25.29
2018-06-25T15:44:23.607Z,26.31
2018-06-25T15:46:55.781Z,26.20
2018-06-25T15:49:25.878Z,26.33
2018-06-25T15:51:56.151Z,26.90
2018-06-25T15:54:25.734Z,26.26
2018-06-25T15:56:55.403Z,26.89
2018-06-25T15:59:25.016Z,26.22
2018-06-25T16:01:54.814Z,26.78
2018-06-25T16:04:24.495Z,26.53
2018-06-25T16:06:54.397Z,27.01
2018-06-25T16:09:24.931Z,26.58
2018-06-25T16:11:54.786Z,26.68
2018-06-25T16:14:24.503Z,27.41
2018-06-25T16:16:54.661Z,27.17
2018-06-25T16:19:24.753Z,27.70
2018-06-25T16:21:55.143Z,27.55
2018-06-25T16:24:24.663Z,27.61
2018-06-25T16:26:54.504Z,26.67
2018-06-25T16:29:24.205Z,27.05
2018-06-25T16:31:54.544Z,26.71
2018-06-25T16:34:24.485Z,26.40
2018-06-25T16:36:54.274Z,25.94
2018-06-25T16:39:23.838Z,26.62
2018-06-25T16:41:53.868Z,27.18
2018-06-25T16:44:33.353Z,28.66
2018-06-25T16:47:03.084Z,28.88
2018-06-25T16:49:32.747Z,29.56
2018-06-25T16:52:02.272Z,29.02
2018-06-25T16:54:31.921Z,29.02
2018-06-25T16:57:01.709Z,29.89
2018-06-25T16:59:31.491Z,29.56
2018-06-25T17:02:00.986Z,29.12
2018-06-25T17:04:30.510Z,29.67
2018-06-25T17:07:00.254Z,29.79
2018-06-25T17:09:29.712Z,30.32
2018-06-25T17:11:59.267Z,29.70
2018-06-25T17:14:28.758Z,30.56
2018-06-25T17:16:58.251Z,29.55
2018-06-25T17:19:28.042Z,30.15
2018-06-25T17:21:57.658Z,30.79
2018-06-25T17:24:27.690Z,29.88
2018-06-25T17:26:57.504Z,30.73
2018-06-25T17:29:27.137Z,31.02
2018-06-25T17:31:56.809Z,30.81
2018-06-25T17:34:26.323Z,30.85
2018-06-25T17:36:56.179Z,30.20
2018-06-25T17:39:26.122Z,29.92
2018-06-25T17:41:55.612Z,30.59
2018-06-25T17:44:25.211Z,31.38
2018-06-25T17:46:54.716Z,30.30
2018-06-25T17:49:24.276Z,31.25
2018-06-25T17:51:53.760Z,30.95
2018-06-25T17:54:23.024Z,31.04
2018-06-25T17:56:52.664Z,30.92
2018-06-25T17:59:22.339Z,31.24
2018-06-25T18:01:52.013Z,31.59
2018-06-25T18:04:21.783Z,31.50
2018-06-25T18:06:51.339Z,31.03
2018-06-25T18:09:21.077Z,31.72
2018-06-25T18:11:50.826Z,31.65
2018-06-25T18:14:20.541Z,31.91
2018-06-25T18:16:50.092Z,31.65
2018-06-25T18:19:19.698Z,31.17
2018-06-25T18:21:49.761Z,31.19
2018-06-25T18:24:19.321Z,31.37
2018-06-25T18:26:48.983Z,31.41
2018-06-25T18:29:18.637Z,32.03
2018-06-25T18:31:48.285Z,31.85
2018-06-25T18:34:18.041Z,31.53
2018-06-25T18:36:47.725Z,31.69
2018-06-25T18:39:19.658Z,32.34
2018-06-25T18:41:49.443Z,32.19
2018-06-25T18:44:19.229Z,32.87
2018-06-25T18:46:49.141Z,32.92
2018-06-25T18:49:18.682Z,31.88
2018-06-25T18:51:48.276Z,32.21
2018-06-25T18:54:17.910Z,32.16
2018-06-25T18:56:47.414Z,32.21
2018-06-25T18:59:17.183Z,33.18
2018-06-25T19:01:46.836Z,32.71
2018-06-25T19:04:16.389Z,32.66
2018-06-25T19:06:45.997Z,33.36
2018-06-25T19:09:15.760Z,33.90
2018-06-25T19:11:45.621Z,33.28
2018-06-25T19:14:15.121Z,34.02
2018-06-25T19:16:44.790Z,34.25
2018-06-25T19:19:14.769Z,34.71
2018-06-25T19:21:44.410Z,34.15
2018-06-25T19:24:14.047Z,34.93
2018-06-25T19:26:43.636Z,34.91
2018-06-25T19:29:13.203Z,35.09
2018-06-25T19:31:42.730Z,34.54
2018-06-25T19:34:12.248Z,34.92
2018-06-25T19:36:42.005Z,34.72
2018-06-25T19:39:13.661Z,34.68
2018-06-25T19:41:43.337Z,35.05
2018-06-25T19:44:13.336Z,35.54
2018-06-25T19:46:43.090Z,34.70
2018-06-25T19:49:12.982Z,34.84
2018-06-25T19:51:42.481Z,34.77
2018-06-25T19:54:12.507Z,35.47
2018-06-25T19:56:42.181Z,35.03
2018-06-25T19:59:11.728Z,35.40
2018-06-25T20:01:41.538Z,35.59
2018-06-25T20:04:11.011Z,36.20
2018-06-25T20:06:40.523Z,36.64
2018-06-25T20:09:12.280Z,37.02
2018-06-25T20:11:42.004Z,36.33
2018-06-25T20:14:11.886Z,37.24
2018-06-25T20:16:41.609Z,36.61
2018-06-25T20:19:11.181Z,37.39
2018-06-25T20:21:40.757Z,37.09
2018-06-25T20:24:10.448Z,37.47
2018-06-25T20:26:40.123Z,38.25
2018-06-25T20:29:09.761Z,37.85
2018-06-25T20:31:39.292Z,38.83
2018-06-25T20:34:09.177Z,38.57
2018-06-25T20:36:38.967Z,38.35
2018-06-25T20:39:11.440Z,38.88
2018-06-25T20:41:41.293Z,39.16
2018-06-25T20:44:10.817Z,39.17
2018-06-25T20:46:40.314Z,39.42
2018-06-25T20:49:10.027Z,39.59
2018-06-25T20:51:39.513Z,39.66
2018-06-25T20:54:09.667Z,39.66
2018-06-25T20:56:39.400Z,40.28
2018-06-25T20:59:09.060Z,40.18
2018-06-25T21:01:38.680Z,39.94
2018-06-25T21:04:08.323Z,40.42
2018-06-25T21:06:37.853Z,40.31
2018-06-25T21:09:10.519Z,40.57
2018-06-25T21:11:40.614Z,40.38
2018-06-25T21:14:10.162Z,40.16
2018-06-25T21:16:39.667Z,41.02
2018-06-25T21:19:09.161Z,41.21
2018-06-25T21:21:38.644Z,40.98
2018-06-25T21:24:08.114Z,41.43
2018-06-25T21:26:38.160Z,41.01
2018-06-25T21:29:07.749Z,41.03
2018-06-25T21:31:37.392Z,41.89
2018-06-25T21:34:07.225Z,42.06
2018-06-25T21:36:36.840Z,41.26
2018-06-25T21:39:08.635Z,41.26
2018-06-25T21:41:38.177Z,42.09
2018-06-25T21:44:07.856Z,41.17
2018-06-25T21:46:37.532Z,40.91
2018-06-25T21:49:07.448Z,41.63
2018-06-25T21:51:36.949Z,41.68
2018-06-25T21:54:06.869Z,42.49
2018-06-25T21:56:36.458Z,42.59
2018-06-25T21:59:06.287Z,43.07
2018-06-25T22:01:36.246Z,43.13
2018-06-25T22:04:05.908Z,43.70
2018-06-25T22:06:35.382Z,43.14
2018-06-25T22:09:08.304Z,43.70
